createdAt,value
2023-02-01T00:00:21.810Z,11.70
2023-02-01T00:02:50.337Z,14.60
2023-02-01T00:05:18.958Z,12.60
2023-02-01T00:07:49.378Z,11.80
2023-02-01T00:10:18.336Z,11.80
2023-02-01T00:12:48.705Z,12.60
2023-02-01T00:15:17.393Z,10.90
2023-02-01T00:17:46.492Z,9.00
2023-02-01T00:20:14.881Z,13.20
2023-02-01T00:22:43.561Z,13.20
2023-02-01T00:25:12.146Z,14.30
2023-02-01T00:27:40.632Z,13.40
2023-02-01T00:30:10.167Z,10.00
2023-02-01T00:32:38.924Z,10.80
2023-02-01T00:35:09.409Z,11.00
2023-02-01T00:37:39.687Z,9.90
2023-02-01T00:40:09.257Z,11.60
2023-02-01T00:42:38.181Z,12.40
2023-02-01T00:45:07.938Z,10.50
2023-02-01T00:47:36.274Z,13.20
2023-02-01T00:50:05.550Z,10.40
2023-02-01T00:52:34.163Z,9.70
2023-02-01T00:55:02.856Z,14.30
2023-02-01T00:57:31.846Z,14.70
2023-02-01T01:00:00.236Z,13.60
2023-02-01T01:02:29.219Z,13.00
2023-02-01T01:04:59.037Z,11.40
2023-02-01T01:07:28.953Z,15.00
2023-02-01T01:09:57.638Z,16.20
2023-02-01T01:12:26.224Z,14.40
2023-02-01T01:14:54.808Z,18.50
2023-02-01T01:17:23.213Z,16.20
2023-02-01T01:19:51.676Z,12.60
2023-02-01T01:22:20.058Z,17.50
2023-02-01T01:24:48.441Z,16.50
2023-02-01T01:29:53.418Z,11.50
2023-02-01T01:32:21.874Z,16.10
2023-02-01T01:34:50.248Z,13.50
2023-02-01T01:37:18.730Z,15.40
2023-02-01T01:39:47.211Z,18.50
2023-02-01T01:42:15.694Z,18.30
2023-02-01T05:51:39.782Z,17.30
2023-02-01T05:54:09.697Z,17.80
2023-02-01T05:56:38.077Z,25.70
2023-02-01T05:59:06.559Z,15.10
2023-02-01T06:01:35.554Z,23.90
2023-02-01T06:04:04.178Z,18.40
2023-02-01T06:06:32.828Z,18.80
2023-02-01T06:09:02.131Z,16.50
2023-02-01T06:11:32.757Z,19.90
2023-02-01T06:14:01.816Z,15.80
2023-02-01T06:16:30.369Z,18.60
2023-02-01T06:18:59.478Z,18.20
2023-02-01T06:21:27.835Z,18.30
2023-02-01T06:23:58.861Z,18.80
2023-02-01T06:26:29.870Z,16.30
2023-02-01T06:28:58.403Z,18.40
2023-02-01T06:31:27.053Z,18.30
2023-02-01T06:33:55.865Z,14.70
2023-02-01T06:36:26.499Z,19.20
2023-02-01T06:38:57.763Z,14.80
2023-02-01T06:41:29.255Z,17.80
2023-02-01T06:43:58.205Z,22.00
2023-02-01T06:46:26.848Z,15.40
2023-02-01T06:48:55.570Z,14.90
2023-02-01T06:51:26.110Z,16.90
2023-02-01T06:53:55.028Z,18.10
2023-02-01T06:56:23.792Z,16.00
2023-02-01T06:58:52.468Z,18.40
2023-02-01T07:01:21.255Z,16.70
2023-02-01T07:03:52.121Z,23.20
2023-02-01T07:06:20.582Z,16.50
2023-02-01T07:08:52.033Z,19.90
2023-02-01T07:11:20.415Z,21.10
2023-02-01T07:13:49.222Z,20.50
2023-02-01T07:16:19.422Z,18.50
2023-02-01T07:18:48.110Z,20.10
2023-02-01T07:21:16.902Z,14.70
2023-02-01T07:23:45.290Z,21.30
2023-02-01T07:26:15.254Z,16.50
2023-02-01T07:28:43.995Z,15.40
2023-02-01T07:31:16.468Z,19.60
2023-02-01T07:33:44.953Z,21.70
2023-02-01T07:36:15.046Z,21.00
2023-02-01T07:41:12.453Z,19.50
2023-02-01T07:43:41.141Z,17.70
2023-02-01T07:46:10.577Z,19.80
2023-02-01T07:48:40.057Z,20.50
2023-02-01T07:51:15.808Z,14.90
2023-02-01T07:53:44.492Z,18.70
2023-02-01T07:56:14.316Z,20.20
2023-02-01T08:01:21.682Z,19.90
2023-02-01T08:03:54.903Z,21.40
2023-02-01T08:06:23.911Z,16.00
2023-02-01T08:08:54.242Z,17.00
2023-02-01T08:11:23.247Z,15.20
2023-02-01T08:13:51.920Z,15.80
2023-02-01T08:16:20.933Z,16.40
2023-02-01T08:18:49.298Z,14.50
2023-02-01T08:21:23.542Z,22.50
2023-02-01T08:23:52.003Z,16.90
2023-02-01T08:26:25.419Z,18.60
2023-02-01T08:28:56.339Z,23.20
2023-02-01T08:31:26.110Z,19.70
2023-02-01T08:33:55.916Z,20.40
2023-02-01T08:36:24.816Z,14.90
2023-02-01T08:38:53.345Z,18.50
2023-02-01T08:41:24.174Z,17.10
2023-02-01T08:43:52.964Z,14.50
2023-02-01T08:46:21.805Z,17.50
2023-02-01T08:48:50.644Z,16.40
2023-02-01T08:51:20.066Z,19.20
2023-02-01T08:53:48.434Z,15.10
2023-02-01T08:56:17.437Z,17.10
2023-02-01T08:58:46.113Z,22.40
2023-02-01T09:01:16.421Z,23.20
2023-02-01T09:03:45.006Z,20.20
2023-02-01T09:06:14.846Z,21.20
2023-02-01T09:08:48.239Z,16.40
2023-02-01T09:11:18.404Z,16.10
2023-02-01T09:13:47.667Z,19.90
2023-02-01T09:16:17.025Z,18.90
2023-02-01T09:18:55.852Z,19.90
2023-02-01T09:21:30.768Z,21.30
2023-02-01T09:23:59.322Z,17.30
2023-02-01T09:26:32.625Z,18.40
2023-02-01T09:29:01.640Z,17.60
2023-02-01T09:31:31.671Z,16.50
2023-02-01T14:09:37.925Z,6.00
2023-02-01T14:12:45.609Z,8.60
2023-02-01T14:15:22.728Z,7.90
2023-02-01T14:17:51.915Z,8.00
2023-02-01T14:20:51.618Z,7.10
2023-02-01T14:23:22.449Z,8.90
2023-02-01T14:26:03.729Z,7.50
2023-02-01T14:28:33.540Z,8.50
2023-02-01T14:31:02.014Z,9.30
2023-02-01T14:33:30.920Z,8.80
2023-02-01T14:36:10.976Z,10.50
2023-02-01T14:38:39.460Z,8.30
2023-02-01T14:41:35.688Z,9.80
2023-02-01T14:44:03.964Z,8.80
2023-02-01T14:47:03.615Z,9.10
2023-02-01T14:49:41.420Z,10.10
2023-02-01T14:52:14.777Z,14.10
2023-02-01T14:54:43.166Z,10.50
2023-02-01T14:57:18.098Z,8.60
2023-02-01T14:59:46.689Z,10.00
2023-02-01T15:02:22.214Z,13.20
2023-02-01T15:04:55.717Z,10.00
2023-02-01T15:07:28.215Z,10.40
2023-02-01T15:09:58.329Z,7.40
2023-02-01T15:12:31.740Z,11.40
2023-02-01T15:15:21.856Z,8.40
2023-02-01T15:17:58.342Z,11.30
2023-02-01T15:20:31.677Z,11.90
2023-02-01T15:23:04.251Z,10.80
2023-02-01T15:25:38.077Z,9.60
2023-02-01T15:28:09.617Z,10.50
2023-02-01T15:30:38.074Z,11.70
2023-02-01T15:33:08.222Z,11.60
2023-02-01T15:35:43.680Z,9.90
2023-02-01T15:38:28.548Z,11.00
2023-02-01T15:41:03.060Z,10.70
2023-02-01T15:43:58.789Z,11.10
2023-02-01T15:46:33.472Z,11.40
2023-02-01T15:49:04.048Z,14.90
2023-02-01T15:51:36.011Z,13.10
2023-02-01T15:54:11.374Z,12.80
2023-02-01T15:56:42.429Z,11.50
2023-02-01T15:59:18.076Z,12.70
2023-02-01T16:01:46.768Z,10.30
2023-02-01T16:04:26.081Z,11.20
2023-02-01T16:07:01.681Z,12.00
2023-02-01T16:09:41.592Z,12.80
2023-02-01T16:12:39.567Z,12.70
2023-02-01T16:15:09.489Z,11.90
2023-02-01T16:17:37.957Z,9.80
2023-02-01T16:20:07.200Z,11.30
2023-02-01T16:22:35.539Z,9.80
2023-02-01T16:25:04.536Z,10.40
2023-02-01T16:27:34.146Z,16.00
2023-02-01T16:30:02.525Z,12.90
2023-02-01T16:32:31.325Z,12.90
2023-02-01T16:35:00.114Z,14.20
2023-02-01T16:37:30.429Z,10.30
2023-02-01T16:39:58.813Z,12.90
2023-02-01T16:42:27.771Z,13.10
2023-02-01T16:44:56.193Z,18.40
2023-02-01T16:47:24.981Z,15.10
2023-02-01T16:49:56.840Z,14.00
2023-02-01T16:52:26.268Z,14.20
2023-02-01T16:54:54.837Z,14.80
2023-02-01T16:57:25.060Z,18.80
2023-02-01T16:59:53.950Z,11.30
2023-02-01T17:02:23.148Z,17.30
2023-02-01T17:04:51.586Z,12.30
2023-02-01T17:07:20.122Z,12.90
2023-02-01T17:09:48.711Z,11.40
2023-02-01T17:12:26.017Z,13.60
2023-02-01T17:14:54.477Z,14.70
2023-02-01T17:17:29.045Z,12.70
2023-02-01T17:20:07.510Z,13.40
2023-02-01T17:22:35.901Z,10.00
2023-02-01T17:25:07.141Z,14.30
2023-02-01T17:27:39.107Z,14.50
2023-02-01T17:30:10.436Z,11.10
2023-02-01T17:32:39.859Z,14.60
2023-02-01T17:35:20.894Z,18.20
2023-02-01T17:37:49.836Z,16.90
2023-02-01T17:40:18.824Z,13.10
2023-02-01T17:42:47.420Z,15.80
2023-02-01T17:45:36.980Z,11.80
2023-02-01T17:48:06.753Z,10.80
2023-02-01T20:12:19.003Z,10.90
2023-02-01T20:14:47.272Z,16.10
2023-02-01T20:17:18.043Z,10.70
2023-02-01T20:22:14.793Z,10.60
2023-02-01T20:24:43.157Z,9.20
2023-02-01T20:27:13.420Z,8.70
2023-02-01T20:29:41.806Z,14.10
2023-02-01T20:32:10.594Z,12.00
2023-02-01T20:34:39.182Z,10.80
2023-02-01T20:37:07.564Z,13.30
2023-02-01T20:39:36.083Z,12.40
2023-02-01T20:42:04.532Z,13.90
2023-02-01T20:44:33.220Z,12.00
2023-02-01T20:47:03.344Z,14.50
2023-02-01T20:49:34.910Z,16.30
2023-02-01T20:52:03.285Z,13.80
2023-02-01T20:54:32.687Z,14.00
2023-02-01T20:57:01.076Z,12.00
2023-02-01T20:59:29.653Z,12.40
2023-02-01T21:01:58.147Z,11.40
2023-02-01T21:04:30.410Z,15.20
2023-02-01T21:07:02.995Z,11.60
2023-02-01T21:09:32.004Z,11.80
2023-02-01T21:12:00.475Z,11.70
2023-02-01T21:14:30.188Z,11.60
2023-02-01T21:16:58.581Z,9.50
2023-02-01T21:19:27.356Z,9.80
2023-02-01T21:21:56.046Z,12.00
2023-02-01T21:24:24.631Z,13.40
2023-02-01T21:26:53.036Z,10.70
2023-02-01T21:29:21.686Z,11.70
2023-02-01T21:31:50.419Z,11.30
2023-02-01T21:34:19.078Z,16.30
2023-02-01T21:36:48.275Z,16.30
2023-02-01T21:39:17.986Z,11.10
2023-02-01T21:42:04.912Z,12.80
2023-02-01T21:44:33.591Z,12.80
2023-02-01T21:47:02.486Z,8.90
2023-02-01T21:49:30.965Z,15.30
2023-02-01T21:52:00.780Z,10.60
2023-02-01T21:54:29.570Z,13.10
2023-02-01T21:56:57.972Z,14.50
2023-02-01T21:59:26.639Z,11.60
2023-02-01T22:01:55.020Z,10.90
2023-02-01T22:04:23.709Z,11.30
2023-02-01T22:06:52.091Z,13.80
2023-02-01T22:09:22.589Z,7.80
2023-02-01T22:11:51.632Z,11.40
2023-02-01T22:14:20.326Z,10.70
2023-02-01T22:16:49.134Z,10.10
2023-02-01T22:19:18.555Z,13.80
2023-02-01T22:21:48.207Z,14.60
2023-02-01T22:24:18.364Z,12.20
2023-02-01T22:26:47.430Z,14.10
2023-02-01T22:29:17.444Z,13.70
2023-02-01T22:31:46.137Z,14.40
2023-02-01T22:34:15.857Z,14.70
2023-02-01T22:36:44.438Z,16.90
2023-02-01T22:39:12.815Z,14.90
2023-02-01T22:41:41.398Z,12.00
2023-02-01T22:44:09.983Z,15.00
2023-02-01T22:46:38.364Z,13.90
2023-02-01T22:49:07.153Z,15.10
2023-02-01T22:51:36.551Z,13.20
2023-02-01T22:54:05.039Z,9.50
2023-02-01T22:56:35.520Z,14.60
2023-02-01T22:59:07.971Z,11.60
2023-02-01T23:01:36.328Z,12.30
2023-02-01T23:04:06.231Z,15.10
2023-02-01T23:06:35.543Z,14.50
2023-02-01T23:09:14.769Z,13.30
2023-02-01T23:11:43.663Z,13.50
2023-02-01T23:14:12.592Z,13.80
2023-02-01T23:16:41.670Z,13.30
2023-02-01T23:19:10.033Z,14.70
2023-02-01T23:21:39.541Z,12.80
2023-02-01T23:24:10.225Z,13.00
2023-02-01T23:26:39.194Z,12.70
2023-02-01T23:29:07.872Z,8.00
2023-02-01T23:31:36.501Z,10.40
2023-02-01T23:34:04.947Z,12.20
2023-02-01T23:36:35.670Z,12.40
2023-02-01T23:39:04.369Z,10.60
2023-02-01T23:41:33.970Z,18.00
2023-02-01T23:44:02.555Z,15.20
2023-02-01T23:46:35.717Z,13.40
2023-02-01T23:49:05.803Z,16.60
2023-02-01T23:51:34.462Z,16.50
2023-02-01T23:54:03.050Z,17.70
2023-02-01T23:56:42.096Z,14.10
2023-02-01T23:59:21.731Z,13.20
